sensor_id;sensor_type;location;lat;lon;timestamp;temperature;humidity
3492;DHT22;1760;52.480;13.422;2022-08-01T00:01:35;22.90;99.90
3492;DHT22;1760;52.480;13.422;2022-08-01T00:04:02;22.90;99.90
3492;DHT22;1760;52.480;13.422;2022-08-01T00:06:29;22.90;99.90
3492;DHT22;1760;52.480;13.422;2022-08-01T00:08:59;22.90;99.90
3492;DHT22;1760;52.480;13.422;2022-08-01T00:11:27;22.90;99.90
3492;DHT22;1760;52.480;13.422;2022-08-01T00:13:54;22.90;99.90
3492;DHT22;1760;52.480;13.422;2022-08-01T00:16:20;22.80;99.90
3492;DHT22;1760;52.480;13.422;2022-08-01T00:18:49;22.80;99.90
3492;DHT22;1760;52.480;13.422;2022-08-01T00:21:16;22.70;99.90
3492;DHT22;1760;52.480;13.422;2022-08-01T00:23:47;22.70;99.90
3492;DHT22;1760;52.480;13.422;2022-08-01T00:26:14;22.60;99.90
3492;DHT22;1760;52.480;13.422;2022-08-01T00:28:45;22.60;99.90
3492;DHT22;1760;52.480;13.422;2022-08-01T00:31:12;22.50;99.90
3492;DHT22;1760;52.480;13.422;2022-08-01T00:33:39;22.50;99.90
3492;DHT22;1760;52.480;13.422;2022-08-01T00:36:05;22.50;99.90
3492;DHT22;1760;52.480;13.422;2022-08-01T00:38:32;22.50;99.90
3492;DHT22;1760;52.480;13.422;2022-08-01T00:40:59;22.50;99.90
3492;DHT22;1760;52.480;13.422;2022-08-01T00:43:26;22.40;99.90
3492;DHT22;1760;52.480;13.422;2022-08-01T00:45:54;22.50;99.90
3492;DHT22;1760;52.480;13.422;2022-08-01T00:48:24;22.50;99.90
3492;DHT22;1760;52.480;13.422;2022-08-01T00:50:53;22.50;99.90
3492;DHT22;1760;52.480;13.422;2022-08-01T00:53:21;22.40;99.90
3492;DHT22;1760;52.480;13.422;2022-08-01T00:55:47;22.30;99.90
3492;DHT22;1760;52.480;13.422;2022-08-01T00:58:14;22.30;99.90
3492;DHT22;1760;52.480;13.422;2022-08-01T01:00:41;22.30;99.90
3492;DHT22;1760;52.480;13.422;2022-08-01T01:03:09;22.30;99.90
3492;DHT22;1760;52.480;13.422;2022-08-01T01:05:42;22.20;99.90
3492;DHT22;1760;52.480;13.422;2022-08-01T01:08:16;22.20;99.90
3492;DHT22;1760;52.480;13.422;2022-08-01T01:10:50;22.20;99.90
3492;DHT22;1760;52.480;13.422;2022-08-01T01:13:23;22.20;99.90
3492;DHT22;1760;52.480;13.422;2022-08-01T01:15:58;22.10;99.90
3492;DHT22;1760;52.480;13.422;2022-08-01T01:18:30;22.00;99.90
3492;DHT22;1760;52.480;13.422;2022-08-01T01:21:04;22.00;99.90
3492;DHT22;1760;52.480;13.422;2022-08-01T01:23:44;22.00;99.90
3492;DHT22;1760;52.480;13.422;2022-08-01T01:26:26;22.00;99.90
3492;DHT22;1760;52.480;13.422;2022-08-01T01:29:02;21.90;99.90
3492;DHT22;1760;52.480;13.422;2022-08-01T01:31:35;22.00;99.90
3492;DHT22;1760;52.480;13.422;2022-08-01T01:34:03;22.00;99.90
3492;DHT22;1760;52.480;13.422;2022-08-01T01:36:37;22.00;99.90
3492;DHT22;1760;52.480;13.422;2022-08-01T01:39:04;22.00;99.90
3492;DHT22;1760;52.480;13.422;2022-08-01T01:41:32;21.90;99.90
3492;DHT22;1760;52.480;13.422;2022-08-01T01:44:04;22.00;99.90
3492;DHT22;1760;52.480;13.422;2022-08-01T01:46:36;21.90;99.90
3492;DHT22;1760;52.480;13.422;2022-08-01T01:49:03;21.90;99.90
3492;DHT22;1760;52.480;13.422;2022-08-01T01:51:32;21.90;99.90
3492;DHT22;1760;52.480;13.422;2022-08-01T01:53:59;21.90;99.90
3492;DHT22;1760;52.480;13.422;2022-08-01T01:56:28;22.00;99.90
3492;DHT22;1760;52.480;13.422;2022-08-01T01:58:59;22.00;99.90
3492;DHT22;1760;52.480;13.422;2022-08-01T02:01:38;22.00;99.90
3492;DHT22;1760;52.480;13.422;2022-08-01T02:04:06;22.00;99.90
3492;DHT22;1760;52.480;13.422;2022-08-01T02:06:34;21.90;99.90
3492;DHT22;1760;52.480;13.422;2022-08-01T02:09:04;21.80;99.90
3492;DHT22;1760;52.480;13.422;2022-08-01T02:11:35;21.80;99.90
3492;DHT22;1760;52.480;13.422;2022-08-01T02:14:02;21.80;99.90
3492;DHT22;1760;52.480;13.422;2022-08-01T02:16:35;21.80;99.90
3492;DHT22;1760;52.480;13.422;2022-08-01T02:19:02;21.80;99.90
3492;DHT22;1760;52.480;13.422;2022-08-01T02:21:32;21.80;99.90
3492;DHT22;1760;52.480;13.422;2022-08-01T02:24:10;21.70;99.90
3492;DHT22;1760;52.480;13.422;2022-08-01T02:26:43;21.60;99.90
3492;DHT22;1760;52.480;13.422;2022-08-01T02:29:17;21.60;99.90
3492;DHT22;1760;52.480;13.422;2022-08-01T02:31:53;21.40;99.90
3492;DHT22;1760;52.480;13.422;2022-08-01T02:34:21;21.30;99.90
3492;DHT22;1760;52.480;13.422;2022-08-01T02:36:51;21.30;99.90
3492;DHT22;1760;52.480;13.422;2022-08-01T02:39:24;21.20;99.90
3492;DHT22;1760;52.480;13.422;2022-08-01T02:42:00;21.20;99.90
3492;DHT22;1760;52.480;13.422;2022-08-01T02:44:33;21.20;99.90
3492;DHT22;1760;52.480;13.422;2022-08-01T02:47:03;21.10;99.90
3492;DHT22;1760;52.480;13.422;2022-08-01T02:49:36;21.10;99.90
3492;DHT22;1760;52.480;13.422;2022-08-01T02:52:07;21.10;99.90
3492;DHT22;1760;52.480;13.422;2022-08-01T02:54:35;21.20;99.90
3492;DHT22;1760;52.480;13.422;2022-08-01T02:57:14;21.20;99.90
3492;DHT22;1760;52.480;13.422;2022-08-01T02:59:46;21.30;99.90
3492;DHT22;1760;52.480;13.422;2022-08-01T03:02:16;21.20;99.90
3492;DHT22;1760;52.480;13.422;2022-08-01T03:04:44;21.20;99.90
3492;DHT22;1760;52.480;13.422;2022-08-01T03:07:12;21.10;99.90
3492;DHT22;1760;52.480;13.422;2022-08-01T03:09:42;21.10;99.90
3492;DHT22;1760;52.480;13.422;2022-08-01T03:12:18;21.10;99.90
3492;DHT22;1760;52.480;13.422;2022-08-01T03:14:51;21.10;99.90
3492;DHT22;1760;52.480;13.422;2022-08-01T03:17:23;21.10;99.90
3492;DHT22;1760;52.480;13.422;2022-08-01T03:19:52;21.10;99.90
3492;DHT22;1760;52.480;13.422;2022-08-01T03:22:22;21.10;99.90
3492;DHT22;1760;52.480;13.422;2022-08-01T03:24:52;21.00;99.90
3492;DHT22;1760;52.480;13.422;2022-08-01T03:27:20;21.10;99.90
3492;DHT22;1760;52.480;13.422;2022-08-01T03:29:48;21.10;99.90
3492;DHT22;1760;52.480;13.422;2022-08-01T03:32:22;21.10;99.90
3492;DHT22;1760;52.480;13.422;2022-08-01T03:34:53;21.20;99.90
3492;DHT22;1760;52.480;13.422;2022-08-01T03:37:23;21.10;99.90
3492;DHT22;1760;52.480;13.422;2022-08-01T03:40:00;21.00;99.90
3492;DHT22;1760;52.480;13.422;2022-08-01T03:42:45;21.00;99.90
3492;DHT22;1760;52.480;13.422;2022-08-01T03:45:19;20.90;99.90
3492;DHT22;1760;52.480;13.422;2022-08-01T03:47:54;20.90;99.90
3492;DHT22;1760;52.480;13.422;2022-08-01T03:50:26;21.00;99.90
3492;DHT22;1760;52.480;13.422;2022-08-01T03:53:01;20.90;99.90
3492;DHT22;1760;52.480;13.422;2022-08-01T03:55:30;21.00;99.90
3492;DHT22;1760;52.480;13.422;2022-08-01T03:58:02;21.00;99.90
3492;DHT22;1760;52.480;13.422;2022-08-01T04:00:32;21.10;99.90
3492;DHT22;1760;52.480;13.422;2022-08-01T04:03:01;21.10;99.90
3492;DHT22;1760;52.480;13.422;2022-08-01T04:05:28;21.10;99.90
3492;DHT22;1760;52.480;13.422;2022-08-01T04:07:55;21.10;99.90
3492;DHT22;1760;52.480;13.422;2022-08-01T04:10:29;21.00;99.90
3492;DHT22;1760;52.480;13.422;2022-08-01T04:12:58;21.00;99.90
3492;DHT22;1760;52.480;13.422;2022-08-01T04:15:27;21.00;99.90
3492;DHT22;1760;52.480;13.422;2022-08-01T04:17:56;21.00;99.90
3492;DHT22;1760;52.480;13.422;2022-08-01T04:20:24;21.00;99.90
3492;DHT22;1760;52.480;13.422;2022-08-01T04:22:51;21.00;99.90
3492;DHT22;1760;52.480;13.422;2022-08-01T04:25:25;21.00;99.90
3492;DHT22;1760;52.480;13.422;2022-08-01T04:27:57;21.00;99.90
3492;DHT22;1760;52.480;13.422;2022-08-01T04:30:27;21.00;99.90
3492;DHT22;1760;52.480;13.422;2022-08-01T04:32:59;21.00;99.90
3492;DHT22;1760;52.480;13.422;2022-08-01T04:35:34;21.10;99.90
3492;DHT22;1760;52.480;13.422;2022-08-01T04:38:07;21.00;99.90
3492;DHT22;1760;52.480;13.422;2022-08-01T04:40:40;21.00;99.90
3492;DHT22;1760;52.480;13.422;2022-08-01T04:43:07;21.00;99.90
3492;DHT22;1760;52.480;13.422;2022-08-01T04:45:35;21.00;99.90
3492;DHT22;1760;52.480;13.422;2022-08-01T04:48:05;20.90;99.90
3492;DHT22;1760;52.480;13.422;2022-08-01T04:50:36;20.90;99.90
3492;DHT22;1760;52.480;13.422;2022-08-01T04:53:03;20.90;99.90
3492;DHT22;1760;52.480;13.422;2022-08-01T04:55:30;20.90;99.90
3492;DHT22;1760;52.480;13.422;2022-08-01T04:57:57;20.90;99.90
3492;DHT22;1760;52.480;13.422;2022-08-01T05:00:27;20.80;99.90
3492;DHT22;1760;52.480;13.422;2022-08-01T05:02:53;20.80;99.90
3492;DHT22;1760;52.480;13.422;2022-08-01T05:05:20;20.80;99.90
3492;DHT22;1760;52.480;13.422;2022-08-01T05:07:49;20.70;99.90
3492;DHT22;1760;52.480;13.422;2022-08-01T05:10:15;20.70;99.90
3492;DHT22;1760;52.480;13.422;2022-08-01T05:12:42;20.70;99.90
3492;DHT22;1760;52.480;13.422;2022-08-01T05:15:09;20.70;99.90
3492;DHT22;1760;52.480;13.422;2022-08-01T05:17:36;20.80;99.90
3492;DHT22;1760;52.480;13.422;2022-08-01T05:20:03;20.80;99.90
3492;DHT22;1760;52.480;13.422;2022-08-01T05:22:31;20.80;99.90
3492;DHT22;1760;52.480;13.422;2022-08-01T05:25:00;20.80;99.90
3492;DHT22;1760;52.480;13.422;2022-08-01T05:27:27;20.80;99.90
3492;DHT22;1760;52.480;13.422;2022-08-01T05:29:53;20.90;99.90
3492;DHT22;1760;52.480;13.422;2022-08-01T05:32:23;20.90;99.90
3492;DHT22;1760;52.480;13.422;2022-08-01T05:34:52;20.90;99.90
3492;DHT22;1760;52.480;13.422;2022-08-01T05:37:22;20.90;99.90
3492;DHT22;1760;52.480;13.422;2022-08-01T05:39:52;20.90;99.90
3492;DHT22;1760;52.480;13.422;2022-08-01T05:42:20;20.90;99.90
3492;DHT22;1760;52.480;13.422;2022-08-01T05:44:47;21.00;99.90
3492;DHT22;1760;52.480;13.422;2022-08-01T05:47:16;21.10;99.90
3492;DHT22;1760;52.480;13.422;2022-08-01T05:49:46;21.10;99.90
3492;DHT22;1760;52.480;13.422;2022-08-01T05:52:13;21.20;99.90
3492;DHT22;1760;52.480;13.422;2022-08-01T05:54:40;21.20;99.90
3492;DHT22;1760;52.480;13.422;2022-08-01T05:57:06;21.20;99.90
3492;DHT22;1760;52.480;13.422;2022-08-01T05:59:35;21.20;99.90
3492;DHT22;1760;52.480;13.422;2022-08-01T06:02:01;21.20;99.90
3492;DHT22;1760;52.480;13.422;2022-08-01T06:04:28;21.30;99.90
3492;DHT22;1760;52.480;13.422;2022-08-01T06:06:55;21.30;99.90
3492;DHT22;1760;52.480;13.422;2022-08-01T06:09:22;21.40;99.90
3492;DHT22;1760;52.480;13.422;2022-08-01T06:11:49;21.50;99.90
3492;DHT22;1760;52.480;13.422;2022-08-01T06:14:16;21.60;99.90
3492;DHT22;1760;52.480;13.422;2022-08-01T06:16:44;21.70;99.90
3492;DHT22;1760;52.480;13.422;2022-08-01T06:19:11;21.80;99.90
3492;DHT22;1760;52.480;13.422;2022-08-01T06:21:38;21.90;99.90
3492;DHT22;1760;52.480;13.422;2022-08-01T06:24:05;22.00;99.90
3492;DHT22;1760;52.480;13.422;2022-08-01T06:26:32;22.00;99.90
3492;DHT22;1760;52.480;13.422;2022-08-01T06:28:59;21.80;99.90
3492;DHT22;1760;52.480;13.422;2022-08-01T06:31:25;21.90;99.90
3492;DHT22;1760;52.480;13.422;2022-08-01T06:33:54;21.80;99.90
3492;DHT22;1760;52.480;13.422;2022-08-01T06:36:22;21.70;99.90
3492;DHT22;1760;52.480;13.422;2022-08-01T06:38:49;21.50;99.90
3492;DHT22;1760;52.480;13.422;2022-08-01T06:41:16;21.40;99.90
3492;DHT22;1760;52.480;13.422;2022-08-01T06:43:43;21.50;99.90
3492;DHT22;1760;52.480;13.422;2022-08-01T06:46:09;21.40;99.90
3492;DHT22;1760;52.480;13.422;2022-08-01T06:48:36;21.40;99.90
3492;DHT22;1760;52.480;13.422;2022-08-01T06:51:06;21.50;99.90
3492;DHT22;1760;52.480;13.422;2022-08-01T06:53:39;21.70;99.90
3492;DHT22;1760;52.480;13.422;2022-08-01T06:56:07;21.80;99.90
3492;DHT22;1760;52.480;13.422;2022-08-01T06:58:35;21.80;99.90
3492;DHT22;1760;52.480;13.422;2022-08-01T07:01:02;21.90;99.90
3492;DHT22;1760;52.480;13.422;2022-08-01T07:03:31;21.90;99.90
3492;DHT22;1760;52.480;13.422;2022-08-01T07:05:58;21.80;99.90
3492;DHT22;1760;52.480;13.422;2022-08-01T07:08:26;21.80;99.90
3492;DHT22;1760;52.480;13.422;2022-08-01T07:10:55;21.90;99.90
3492;DHT22;1760;52.480;13.422;2022-08-01T07:13:25;21.90;99.90
3492;DHT22;1760;52.480;13.422;2022-08-01T07:15:52;21.80;99.90
3492;DHT22;1760;52.480;13.422;2022-08-01T07:18:19;21.80;99.90
3492;DHT22;1760;52.480;13.422;2022-08-01T07:20:46;21.80;99.90
3492;DHT22;1760;52.480;13.422;2022-08-01T07:23:13;21.90;99.90
3492;DHT22;1760;52.480;13.422;2022-08-01T07:25:41;21.90;99.90
3492;DHT22;1760;52.480;13.422;2022-08-01T07:28:08;21.90;99.90
3492;DHT22;1760;52.480;13.422;2022-08-01T07:30:35;22.00;99.90
3492;DHT22;1760;52.480;13.422;2022-08-01T07:33:05;22.00;99.90
3492;DHT22;1760;52.480;13.422;2022-08-01T07:35:31;21.90;99.90
3492;DHT22;1760;52.480;13.422;2022-08-01T07:37:58;21.90;99.90
3492;DHT22;1760;52.480;13.422;2022-08-01T07:40:25;21.80;99.90
3492;DHT22;1760;52.480;13.422;2022-08-01T07:42:53;21.80;99.90
3492;DHT22;1760;52.480;13.422;2022-08-01T07:45:20;21.80;99.90
3492;DHT22;1760;52.480;13.422;2022-08-01T07:47:49;21.70;99.90
3492;DHT22;1760;52.480;13.422;2022-08-01T07:50:16;21.80;99.90
3492;DHT22;1760;52.480;13.422;2022-08-01T07:52:43;21.80;99.90
3492;DHT22;1760;52.480;13.422;2022-08-01T07:55:11;22.00;99.90
3492;DHT22;1760;52.480;13.422;2022-08-01T07:57:38;22.10;99.90
3492;DHT22;1760;52.480;13.422;2022-08-01T08:00:08;22.40;99.90
3492;DHT22;1760;52.480;13.422;2022-08-01T08:02:35;22.50;99.90
3492;DHT22;1760;52.480;13.422;2022-08-01T08:05:02;22.50;99.90
3492;DHT22;1760;52.480;13.422;2022-08-01T08:07:30;22.60;99.90
3492;DHT22;1760;52.480;13.422;2022-08-01T08:09:57;22.60;99.90
3492;DHT22;1760;52.480;13.422;2022-08-01T08:12:24;22.70;99.90
3492;DHT22;1760;52.480;13.422;2022-08-01T08:14:52;22.60;99.90
3492;DHT22;1760;52.480;13.422;2022-08-01T08:17:20;22.60;99.90
3492;DHT22;1760;52.480;13.422;2022-08-01T08:19:47;22.50;99.90
3492;DHT22;1760;52.480;13.422;2022-08-01T08:22:14;22.40;99.90
3492;DHT22;1760;52.480;13.422;2022-08-01T08:24:41;22.30;99.90
3492;DHT22;1760;52.480;13.422;2022-08-01T08:27:08;22.30;99.90
3492;DHT22;1760;52.480;13.422;2022-08-01T08:29:34;22.20;99.90
3492;DHT22;1760;52.480;13.422;2022-08-01T08:32:01;22.10;99.90
3492;DHT22;1760;52.480;13.422;2022-08-01T08:34:29;21.90;99.90
3492;DHT22;1760;52.480;13.422;2022-08-01T08:36:58;21.90;99.90
3492;DHT22;1760;52.480;13.422;2022-08-01T08:39:25;21.90;99.90
3492;DHT22;1760;52.480;13.422;2022-08-01T08:41:55;21.90;99.90
3492;DHT22;1760;52.480;13.422;2022-08-01T08:44:22;21.90;99.90
3492;DHT22;1760;52.480;13.422;2022-08-01T08:46:51;22.00;99.90
3492;DHT22;1760;52.480;13.422;2022-08-01T08:49:20;22.10;99.90
3492;DHT22;1760;52.480;13.422;2022-08-01T08:51:50;22.10;99.90
3492;DHT22;1760;52.480;13.422;2022-08-01T08:54:19;22.20;99.90
3492;DHT22;1760;52.480;13.422;2022-08-01T08:56:47;22.30;99.90
3492;DHT22;1760;52.480;13.422;2022-08-01T08:59:15;22.50;99.90
3492;DHT22;1760;52.480;13.422;2022-08-01T09:01:43;22.70;99.90
3492;DHT22;1760;52.480;13.422;2022-08-01T09:04:10;22.80;99.90
3492;DHT22;1760;52.480;13.422;2022-08-01T09:06:38;22.80;99.90
3492;DHT22;1760;52.480;13.422;2022-08-01T09:09:09;22.80;99.90
3492;DHT22;1760;52.480;13.422;2022-08-01T09:11:43;22.80;99.90
3492;DHT22;1760;52.480;13.422;2022-08-01T09:14:11;22.90;99.90
3492;DHT22;1760;52.480;13.422;2022-08-01T09:16:41;23.00;99.90
3492;DHT22;1760;52.480;13.422;2022-08-01T09:19:11;23.20;99.90
3492;DHT22;1760;52.480;13.422;2022-08-01T09:21:39;23.30;99.90
3492;DHT22;1760;52.480;13.422;2022-08-01T09:24:15;23.30;99.90
3492;DHT22;1760;52.480;13.422;2022-08-01T09:26:43;23.20;99.90
3492;DHT22;1760;52.480;13.422;2022-08-01T09:29:18;23.20;99.90
3492;DHT22;1760;52.480;13.422;2022-08-01T09:31:46;23.10;99.90
3492;DHT22;1760;52.480;13.422;2022-08-01T09:34:14;23.00;99.90
3492;DHT22;1760;52.480;13.422;2022-08-01T09:36:46;22.90;99.90
3492;DHT22;1760;52.480;13.422;2022-08-01T09:39:19;22.90;99.90
3492;DHT22;1760;52.480;13.422;2022-08-01T09:41:46;22.80;99.90
3492;DHT22;1760;52.480;13.422;2022-08-01T09:44:17;22.80;99.90
3492;DHT22;1760;52.480;13.422;2022-08-01T09:46:50;22.90;99.90
3492;DHT22;1760;52.480;13.422;2022-08-01T09:49:27;23.00;99.90
3492;DHT22;1760;52.480;13.422;2022-08-01T09:51:57;23.10;99.90
3492;DHT22;1760;52.480;13.422;2022-08-01T09:54:30;23.20;99.90
3492;DHT22;1760;52.480;13.422;2022-08-01T09:57:13;23.30;99.90
3492;DHT22;1760;52.480;13.422;2022-08-01T09:59:43;23.20;99.90
3492;DHT22;1760;52.480;13.422;2022-08-01T10:02:13;23.10;99.90
3492;DHT22;1760;52.480;13.422;2022-08-01T10:04:50;23.10;99.90
3492;DHT22;1760;52.480;13.422;2022-08-01T10:07:18;23.00;99.90
3492;DHT22;1760;52.480;13.422;2022-08-01T10:09:46;22.90;99.90
3492;DHT22;1760;52.480;13.422;2022-08-01T10:12:17;22.90;99.90
3492;DHT22;1760;52.480;13.422;2022-08-01T10:14:46;22.90;99.90
3492;DHT22;1760;52.480;13.422;2022-08-01T10:17:16;22.80;99.90
3492;DHT22;1760;52.480;13.422;2022-08-01T10:19:44;22.70;99.90
3492;DHT22;1760;52.480;13.422;2022-08-01T10:22:12;22.80;99.90
3492;DHT22;1760;52.480;13.422;2022-08-01T10:24:43;22.90;99.90
3492;DHT22;1760;52.480;13.422;2022-08-01T10:27:14;23.00;99.90
3492;DHT22;1760;52.480;13.422;2022-08-01T10:29:47;23.20;99.90
3492;DHT22;1760;52.480;13.422;2022-08-01T10:32:16;23.30;99.90
3492;DHT22;1760;52.480;13.422;2022-08-01T10:34:44;23.40;99.90
3492;DHT22;1760;52.480;13.422;2022-08-01T10:37:14;23.50;99.90
3492;DHT22;1760;52.480;13.422;2022-08-01T10:39:42;23.50;99.90
3492;DHT22;1760;52.480;13.422;2022-08-01T10:42:11;23.50;99.90
3492;DHT22;1760;52.480;13.422;2022-08-01T10:44:39;23.40;99.90
3492;DHT22;1760;52.480;13.422;2022-08-01T10:47:09;23.40;99.90
3492;DHT22;1760;52.480;13.422;2022-08-01T10:49:41;23.30;99.90
3492;DHT22;1760;52.480;13.422;2022-08-01T10:52:14;23.30;99.90
3492;DHT22;1760;52.480;13.422;2022-08-01T10:54:41;23.20;99.90
3492;DHT22;1760;52.480;13.422;2022-08-01T10:57:08;23.20;99.90
3492;DHT22;1760;52.480;13.422;2022-08-01T10:59:47;23.20;99.90
3492;DHT22;1760;52.480;13.422;2022-08-01T11:02:26;23.20;99.90
3492;DHT22;1760;52.480;13.422;2022-08-01T11:04:55;23.30;99.90
3492;DHT22;1760;52.480;13.422;2022-08-01T11:07:38;23.40;99.90
3492;DHT22;1760;52.480;13.422;2022-08-01T11:10:14;23.50;99.90
3492;DHT22;1760;52.480;13.422;2022-08-01T11:12:43;23.60;99.90
3492;DHT22;1760;52.480;13.422;2022-08-01T11:15:24;23.60;99.90
3492;DHT22;1760;52.480;13.422;2022-08-01T11:17:52;23.70;99.90
3492;DHT22;1760;52.480;13.422;2022-08-01T11:20:21;23.90;99.90
3492;DHT22;1760;52.480;13.422;2022-08-01T11:26:19;23.90;99.90
3492;DHT22;1760;52.480;13.422;2022-08-01T11:29:11;24.00;99.90
3492;DHT22;1760;52.480;13.422;2022-08-01T11:31:39;23.80;99.90
3492;DHT22;1760;52.480;13.422;2022-08-01T11:34:06;23.70;99.90
3492;DHT22;1760;52.480;13.422;2022-08-01T11:36:34;23.50;99.90
3492;DHT22;1760;52.480;13.422;2022-08-01T11:39:17;23.40;99.90
3492;DHT22;1760;52.480;13.422;2022-08-01T11:41:46;23.30;99.90
3492;DHT22;1760;52.480;13.422;2022-08-01T11:44:16;23.10;99.90
3492;DHT22;1760;52.480;13.422;2022-08-01T11:46:58;23.00;99.90
3492;DHT22;1760;52.480;13.422;2022-08-01T11:49:29;22.90;99.90
3492;DHT22;1760;52.480;13.422;2022-08-01T11:51:59;23.00;99.90
3492;DHT22;1760;52.480;13.422;2022-08-01T11:54:28;23.00;99.90
3492;DHT22;1760;52.480;13.422;2022-08-01T11:56:56;23.00;99.90
3492;DHT22;1760;52.480;13.422;2022-08-01T11:59:23;23.00;99.90
3492;DHT22;1760;52.480;13.422;2022-08-01T12:01:50;23.20;99.90
3492;DHT22;1760;52.480;13.422;2022-08-01T12:04:19;23.20;99.90
3492;DHT22;1760;52.480;13.422;2022-08-01T12:06:46;23.30;99.90
3492;DHT22;1760;52.480;13.422;2022-08-01T12:09:17;23.30;99.90
3492;DHT22;1760;52.480;13.422;2022-08-01T12:11:45;23.40;99.90
3492;DHT22;1760;52.480;13.422;2022-08-01T12:14:18;23.60;99.90
3492;DHT22;1760;52.480;13.422;2022-08-01T12:16:51;23.60;99.90
3492;DHT22;1760;52.480;13.422;2022-08-01T12:19:21;23.80;99.90
3492;DHT22;1760;52.480;13.422;2022-08-01T12:22:08;24.00;99.90
3492;DHT22;1760;52.480;13.422;2022-08-01T12:24:35;24.40;99.90
3492;DHT22;1760;52.480;13.422;2022-08-01T12:27:03;24.70;99.90
3492;DHT22;1760;52.480;13.422;2022-08-01T12:29:37;25.00;99.90
3492;DHT22;1760;52.480;13.422;2022-08-01T12:34:37;25.20;99.90
3492;DHT22;1760;52.480;13.422;2022-08-01T12:37:04;25.20;99.90
3492;DHT22;1760;52.480;13.422;2022-08-01T12:39:34;25.40;99.90
3492;DHT22;1760;52.480;13.422;2022-08-01T12:42:06;25.60;99.90
3492;DHT22;1760;52.480;13.422;2022-08-01T12:44:33;25.70;99.90
3492;DHT22;1760;52.480;13.422;2022-08-01T12:47:00;25.90;99.90
3492;DHT22;1760;52.480;13.422;2022-08-01T12:49:28;26.00;99.90
3492;DHT22;1760;52.480;13.422;2022-08-01T12:51:56;25.90;99.90
3492;DHT22;1760;52.480;13.422;2022-08-01T12:54:25;25.70;99.90
3492;DHT22;1760;52.480;13.422;2022-08-01T12:56:54;25.60;99.90
3492;DHT22;1760;52.480;13.422;2022-08-01T12:59:23;25.60;99.90
3492;DHT22;1760;52.480;13.422;2022-08-01T13:01:52;25.70;99.90
3492;DHT22;1760;52.480;13.422;2022-08-01T13:04:19;26.00;99.90
3492;DHT22;1760;52.480;13.422;2022-08-01T13:06:46;26.00;99.90
3492;DHT22;1760;52.480;13.422;2022-08-01T13:09:15;26.10;99.90
3492;DHT22;1760;52.480;13.422;2022-08-01T13:11:42;26.30;99.90
3492;DHT22;1760;52.480;13.422;2022-08-01T13:14:26;26.60;99.90
3492;DHT22;1760;52.480;13.422;2022-08-01T13:16:54;26.80;99.90
3492;DHT22;1760;52.480;13.422;2022-08-01T13:19:21;26.80;99.90
3492;DHT22;1760;52.480;13.422;2022-08-01T13:21:54;26.60;99.90
3492;DHT22;1760;52.480;13.422;2022-08-01T13:24:27;26.30;99.90
3492;DHT22;1760;52.480;13.422;2022-08-01T13:26:55;25.90;99.90
3492;DHT22;1760;52.480;13.422;2022-08-01T13:29:30;25.50;99.90
3492;DHT22;1760;52.480;13.422;2022-08-01T13:31:58;25.30;99.90
3492;DHT22;1760;52.480;13.422;2022-08-01T13:34:32;25.10;99.90
3492;DHT22;1760;52.480;13.422;2022-08-01T13:36:59;25.00;99.90
3492;DHT22;1760;52.480;13.422;2022-08-01T13:39:28;24.90;99.90
3492;DHT22;1760;52.480;13.422;2022-08-01T13:42:08;24.70;99.90
3492;DHT22;1760;52.480;13.422;2022-08-01T13:44:37;24.70;99.90
3492;DHT22;1760;52.480;13.422;2022-08-01T13:47:04;24.80;99.90
3492;DHT22;1760;52.480;13.422;2022-08-01T13:49:31;24.90;99.90
3492;DHT22;1760;52.480;13.422;2022-08-01T13:51:58;25.10;99.90
3492;DHT22;1760;52.480;13.422;2022-08-01T13:54:25;25.20;99.90
3492;DHT22;1760;52.480;13.422;2022-08-01T13:56:54;25.30;99.90
3492;DHT22;1760;52.480;13.422;2022-08-01T13:59:21;25.40;99.90
3492;DHT22;1760;52.480;13.422;2022-08-01T14:01:50;25.30;99.90
3492;DHT22;1760;52.480;13.422;2022-08-01T14:04:17;25.20;99.90
3492;DHT22;1760;52.480;13.422;2022-08-01T14:06:44;25.00;99.90
3492;DHT22;1760;52.480;13.422;2022-08-01T14:09:11;24.90;99.90
3492;DHT22;1760;52.480;13.422;2022-08-01T14:11:38;24.80;99.90
3492;DHT22;1760;52.480;13.422;2022-08-01T14:14:06;24.80;99.90
3492;DHT22;1760;52.480;13.422;2022-08-01T14:16:33;24.70;99.90
3492;DHT22;1760;52.480;13.422;2022-08-01T14:19:03;24.80;99.90
3492;DHT22;1760;52.480;13.422;2022-08-01T14:21:32;24.70;99.90
3492;DHT22;1760;52.480;13.422;2022-08-01T14:23:59;24.90;99.90
3492;DHT22;1760;52.480;13.422;2022-08-01T14:26:26;25.00;99.90
3492;DHT22;1760;52.480;13.422;2022-08-01T14:28:53;25.10;99.90
3492;DHT22;1760;52.480;13.422;2022-08-01T14:31:21;25.20;99.90
3492;DHT22;1760;52.480;13.422;2022-08-01T14:33:48;25.30;99.90
3492;DHT22;1760;52.480;13.422;2022-08-01T14:36:16;25.30;99.90
3492;DHT22;1760;52.480;13.422;2022-08-01T14:38:43;25.40;99.90
3492;DHT22;1760;52.480;13.422;2022-08-01T14:41:10;25.60;99.90
3492;DHT22;1760;52.480;13.422;2022-08-01T14:43:37;25.90;99.90
3492;DHT22;1760;52.480;13.422;2022-08-01T14:46:04;26.10;99.90
3492;DHT22;1760;52.480;13.422;2022-08-01T14:48:32;26.20;99.90
3492;DHT22;1760;52.480;13.422;2022-08-01T14:50:59;26.20;99.90
3492;DHT22;1760;52.480;13.422;2022-08-01T14:53:28;26.30;99.90
3492;DHT22;1760;52.480;13.422;2022-08-01T14:55:55;26.40;99.90
3492;DHT22;1760;52.480;13.422;2022-08-01T14:58:21;26.40;99.90
3492;DHT22;1760;52.480;13.422;2022-08-01T15:00:48;26.40;99.90
3492;DHT22;1760;52.480;13.422;2022-08-01T15:03:15;26.20;99.90
3492;DHT22;1760;52.480;13.422;2022-08-01T15:05:43;26.10;99.90
3492;DHT22;1760;52.480;13.422;2022-08-01T15:08:10;26.00;99.90
3492;DHT22;1760;52.480;13.422;2022-08-01T15:10:37;25.90;99.90
3492;DHT22;1760;52.480;13.422;2022-08-01T15:13:04;25.80;99.90
3492;DHT22;1760;52.480;13.422;2022-08-01T15:15:31;25.70;99.90
3492;DHT22;1760;52.480;13.422;2022-08-01T15:17:58;25.60;99.90
3492;DHT22;1760;52.480;13.422;2022-08-01T15:20:27;25.50;99.90
3492;DHT22;1760;52.480;13.422;2022-08-01T15:23:01;25.40;99.90
3492;DHT22;1760;52.480;13.422;2022-08-01T15:25:28;25.20;99.90
3492;DHT22;1760;52.480;13.422;2022-08-01T15:27:55;25.10;99.90
3492;DHT22;1760;52.480;13.422;2022-08-01T15:30:22;25.10;99.90
3492;DHT22;1760;52.480;13.422;2022-08-01T15:32:49;25.00;99.90
3492;DHT22;1760;52.480;13.422;2022-08-01T15:35:16;25.00;99.90
3492;DHT22;1760;52.480;13.422;2022-08-01T15:37:42;24.90;99.90
3492;DHT22;1760;52.480;13.422;2022-08-01T15:40:11;24.90;99.90
3492;DHT22;1760;52.480;13.422;2022-08-01T15:42:39;25.00;99.90
3492;DHT22;1760;52.480;13.422;2022-08-01T15:45:15;25.10;99.90
3492;DHT22;1760;52.480;13.422;2022-08-01T15:47:46;25.20;99.90
3492;DHT22;1760;52.480;13.422;2022-08-01T15:50:13;25.40;99.90
3492;DHT22;1760;52.480;13.422;2022-08-01T15:52:40;25.50;99.90
3492;DHT22;1760;52.480;13.422;2022-08-01T15:55:07;25.60;99.90
3492;DHT22;1760;52.480;13.422;2022-08-01T15:57:35;25.50;99.90
3492;DHT22;1760;52.480;13.422;2022-08-01T16:00:03;25.50;99.90
3492;DHT22;1760;52.480;13.422;2022-08-01T16:02:30;25.60;99.90
3492;DHT22;1760;52.480;13.422;2022-08-01T16:04:57;25.60;99.90